Ayr, Nebraska
Current Conditions -  °F | °C
As of 5:53 AM on Sunday 21 Dec 2014 (Local Time) from KHSI Reporting Station
Haze Haze  
Wind Chill: 33°   Ceiling: Unl
Heat Index: 33°   Visibility: 5mi
Dew Point: 32°   Wind: 3mph
Humidity: 96%   Direction: 190°S
Pressure: 29.84"   Gusts: NA
Location:  40.44°N, 98.44°W
Report Text: KHSI 211153Z AUTO 19003KT 5SM BR FEW110 01/00 A2984 RMK AO2 SLP120 I6001 T00060000 10011 21017 56016
Loading
Personal Weather Stations






























Interactive Weather Map New forecast layout! Learn more

10-Day Weather Forecast

Advertisements
Track Severe Weather on mobile